sensor_id;sensor_type;location;lat;lon;timestamp;pressure;altitude;pressure_sealevel;temperature;humidity
8320;BME280;4197;42.130;24.746;2024-01-15T00:02:27;99114.56;;;-3.25;100.00
8320;BME280;4197;42.130;24.746;2024-01-15T00:04:57;99114.56;;;-3.30;100.00
8320;BME280;4197;42.130;24.746;2024-01-15T00:07:25;99113.53;;;-3.34;100.00
8320;BME280;4197;42.130;24.746;2024-01-15T00:09:53;99110.34;;;-3.36;100.00
8320;BME280;4197;42.130;24.746;2024-01-15T00:12:21;99117.78;;;-3.38;100.00
8320;BME280;4197;42.130;24.746;2024-01-15T00:14:50;99104.81;;;-3.40;100.00
8320;BME280;4197;42.130;24.746;2024-01-15T00:17:18;99112.22;;;-3.42;100.00
8320;BME280;4197;42.130;24.746;2024-01-15T00:19:47;99108.00;;;-3.43;100.00
8320;BME280;4197;42.130;24.746;2024-01-15T00:22:17;99102.16;;;-3.45;100.00
8320;BME280;4197;42.130;24.746;2024-01-15T00:24:45;99100.84;;;-3.47;100.00
8320;BME280;4197;42.130;24.746;2024-01-15T00:27:14;99108.78;;;-3.47;100.00
8320;BME280;4197;42.130;24.746;2024-01-15T00:29:42;99106.44;;;-3.49;100.00
8320;BME280;4197;42.130;24.746;2024-01-15T00:32:10;99102.97;;;-3.49;100.00
8320;BME280;4197;42.130;24.746;2024-01-15T00:34:38;99108.25;;;-3.49;100.00
8320;BME280;4197;42.130;24.746;2024-01-15T00:37:08;99104.81;;;-3.50;100.00
8320;BME280;4197;42.130;24.746;2024-01-15T00:39:37;99098.19;;;-3.52;100.00
8320;BME280;4197;42.130;24.746;2024-01-15T00:42:06;99098.72;;;-3.50;100.00
8320;BME280;4197;42.130;24.746;2024-01-15T00:44:34;99095.56;;;-3.52;100.00
8320;BME280;4197;42.130;24.746;2024-01-15T00:47:03;99099.53;;;-3.55;100.00
8320;BME280;4197;42.130;24.746;2024-01-15T00:49:31;99095.56;;;-3.58;100.00
8320;BME280;4197;42.130;24.746;2024-01-15T00:51:59;99092.91;;;-3.52;100.00
8320;BME280;4197;42.130;24.746;2024-01-15T00:54:29;99090.25;;;-3.52;100.00
8320;BME280;4197;42.130;24.746;2024-01-15T00:56:58;99090.25;;;-3.52;100.00
8320;BME280;4197;42.130;24.746;2024-01-15T00:59:27;99079.94;;;-3.54;100.00
8320;BME280;4197;42.130;24.746;2024-01-15T01:01:55;99084.69;;;-3.56;100.00
8320;BME280;4197;42.130;24.746;2024-01-15T01:04:23;99076.50;;;-3.54;100.00
8320;BME280;4197;42.130;24.746;2024-01-15T01:06:51;99088.91;;;-3.50;100.00
8320;BME280;4197;42.130;24.746;2024-01-15T01:09:20;99085.47;;;-3.45;100.00
8320;BME280;4197;42.130;24.746;2024-01-15T01:11:48;99077.53;;;-3.50;100.00
8320;BME280;4197;42.130;24.746;2024-01-15T01:14:18;99075.69;;;-3.55;100.00
8320;BME280;4197;42.130;24.746;2024-01-15T01:16:46;99076.22;;;-3.58;100.00
8320;BME280;4197;42.130;24.746;2024-01-15T01:19:15;99075.44;;;-3.64;100.00
8320;BME280;4197;42.130;24.746;2024-01-15T01:21:43;99077.53;;;-3.61;100.00
8320;BME280;4197;42.130;24.746;2024-01-15T01:24:12;99072.78;;;-3.64;100.00
8320;BME280;4197;42.130;24.746;2024-01-15T01:26:40;99070.97;;;-3.68;100.00
8320;BME280;4197;42.130;24.746;2024-01-15T01:29:08;99074.16;;;-3.71;100.00
8320;BME280;4197;42.130;24.746;2024-01-15T01:31:42;99075.47;;;-3.74;100.00
8320;BME280;4197;42.130;24.746;2024-01-15T01:34:13;99076.25;;;-3.68;100.00
8320;BME280;4197;42.130;24.746;2024-01-15T01:36:42;99072.78;;;-3.69;100.00
8320;BME280;4197;42.130;24.746;2024-01-15T01:39:11;99061.16;;;-3.68;100.00
8320;BME280;4197;42.130;24.746;2024-01-15T01:41:39;99076.53;;;-3.70;100.00
8320;BME280;4197;42.130;24.746;2024-01-15T01:44:08;99079.16;;;-3.70;100.00
8320;BME280;4197;42.130;24.746;2024-01-15T01:46:38;99074.16;;;-3.71;100.00
8320;BME280;4197;42.130;24.746;2024-01-15T01:49:08;99070.44;;;-3.70;100.00
8320;BME280;4197;42.130;24.746;2024-01-15T01:51:38;99067.00;;;-3.71;100.00
8320;BME280;4197;42.130;24.746;2024-01-15T01:54:08;99061.69;;;-3.71;100.00
8320;BME280;4197;42.130;24.746;2024-01-15T01:56:40;99056.13;;;-3.74;100.00
8320;BME280;4197;42.130;24.746;2024-01-15T01:59:09;99052.44;;;-3.78;100.00
8320;BME280;4197;42.130;24.746;2024-01-15T02:01:40;99058.00;;;-3.80;100.00
8320;BME280;4197;42.130;24.746;2024-01-15T02:04:09;99051.63;;;-3.74;100.00
8320;BME280;4197;42.130;24.746;2024-01-15T02:06:38;99050.56;;;-3.78;100.00
8320;BME280;4197;42.130;24.746;2024-01-15T02:09:07;99060.13;;;-3.82;100.00
8320;BME280;4197;42.130;24.746;2024-01-15T02:11:36;99056.16;;;-3.79;100.00
8320;BME280;4197;42.130;24.746;2024-01-15T02:14:05;99061.72;;;-3.81;100.00
8320;BME280;4197;42.130;24.746;2024-01-15T02:16:33;99054.84;;;-3.87;100.00
8320;BME280;4197;42.130;24.746;2024-01-15T02:19:02;99061.72;;;-3.86;100.00
8320;BME280;4197;42.130;24.746;2024-01-15T02:21:31;99051.66;;;-3.84;100.00
8320;BME280;4197;42.130;24.746;2024-01-15T02:24:01;99052.72;;;-3.85;100.00
8320;BME280;4197;42.130;24.746;2024-01-15T02:26:30;99053.22;;;-3.88;100.00
8320;BME280;4197;42.130;24.746;2024-01-15T02:29:03;99044.78;;;-3.85;100.00
8320;BME280;4197;42.130;24.746;2024-01-15T02:31:32;99054.00;;;-3.72;100.00
8320;BME280;4197;42.130;24.746;2024-01-15T02:34:01;99056.66;;;-3.83;100.00
8320;BME280;4197;42.130;24.746;2024-01-15T02:36:29;99050.88;;;-3.90;100.00
8320;BME280;4197;42.130;24.746;2024-01-15T02:38:58;99051.66;;;-3.94;100.00
8320;BME280;4197;42.130;24.746;2024-01-15T02:41:27;99051.13;;;-3.96;100.00
8320;BME280;4197;42.130;24.746;2024-01-15T02:43:56;99042.69;;;-3.98;100.00
8320;BME280;4197;42.130;24.746;2024-01-15T02:46:24;99051.16;;;-4.01;100.00
8320;BME280;4197;42.130;24.746;2024-01-15T02:48:52;99055.88;;;-3.88;100.00
8320;BME280;4197;42.130;24.746;2024-01-15T02:51:21;99053.78;;;-3.96;100.00
8320;BME280;4197;42.130;24.746;2024-01-15T02:53:50;99043.22;;;-4.01;100.00
8320;BME280;4197;42.130;24.746;2024-01-15T02:56:18;99044.53;;;-4.09;100.00
8320;BME280;4197;42.130;24.746;2024-01-15T02:58:48;99039.78;;;-4.12;100.00
8320;BME280;4197;42.130;24.746;2024-01-15T03:01:18;99044.28;;;-4.13;100.00
8320;BME280;4197;42.130;24.746;2024-01-15T03:03:47;99033.72;;;-4.13;100.00
8320;BME280;4197;42.130;24.746;2024-01-15T03:06:15;99031.56;;;-4.11;100.00
8320;BME280;4197;42.130;24.746;2024-01-15T03:08:44;99038.47;;;-4.15;100.00
8320;BME280;4197;42.130;24.746;2024-01-15T03:11:12;99040.03;;;-4.14;100.00
8320;BME280;4197;42.130;24.746;2024-01-15T03:13:40;99029.97;;;-4.01;100.00
8320;BME280;4197;42.130;24.746;2024-01-15T03:16:10;99029.44;;;-4.09;100.00
8320;BME280;4197;42.130;24.746;2024-01-15T03:18:38;99044.00;;;-4.11;100.00
8320;BME280;4197;42.130;24.746;2024-01-15T03:21:07;99046.66;;;-4.16;100.00
8320;BME280;4197;42.130;24.746;2024-01-15T03:23:35;99038.72;;;-4.16;100.00
8320;BME280;4197;42.130;24.746;2024-01-15T03:26:03;99028.91;;;-4.06;100.00
8320;BME280;4197;42.130;24.746;2024-01-15T03:28:32;99026.81;;;-4.09;100.00
8320;BME280;4197;42.130;24.746;2024-01-15T03:31:00;99030.53;;;-4.15;100.00
8320;BME280;4197;42.130;24.746;2024-01-15T03:33:30;99031.56;;;-4.06;100.00
8320;BME280;4197;42.130;24.746;2024-01-15T03:35:58;99018.84;;;-4.19;100.00
8320;BME280;4197;42.130;24.746;2024-01-15T03:38:28;99006.44;;;-4.18;100.00
8320;BME280;4197;42.130;24.746;2024-01-15T03:40:56;99010.41;;;-4.21;100.00
8320;BME280;4197;42.130;24.746;2024-01-15T03:43:25;99031.59;;;-4.21;100.00
8320;BME280;4197;42.130;24.746;2024-01-15T03:45:54;99029.47;;;-4.29;100.00
8320;BME280;4197;42.130;24.746;2024-01-15T03:48:22;99036.88;;;-4.36;100.00
8320;BME280;4197;42.130;24.746;2024-01-15T03:50:52;99040.56;;;-4.27;100.00
8320;BME280;4197;42.130;24.746;2024-01-15T03:53:20;99046.13;;;-4.13;100.00
8320;BME280;4197;42.130;24.746;2024-01-15T03:55:49;99038.47;;;-4.10;100.00
8320;BME280;4197;42.130;24.746;2024-01-15T03:58:17;99030.53;;;-4.15;100.00
8320;BME280;4197;42.130;24.746;2024-01-15T04:00:45;99034.50;;;-4.22;100.00
8320;BME280;4197;42.130;24.746;2024-01-15T04:03:14;99037.69;;;-4.20;100.00
8320;BME280;4197;42.130;24.746;2024-01-15T04:05:43;99019.41;;;-4.12;100.00
8320;BME280;4197;42.130;24.746;2024-01-15T04:08:13;99024.69;;;-4.07;100.00
8320;BME280;4197;42.130;24.746;2024-01-15T04:10:41;99024.69;;;-4.17;100.00
8320;BME280;4197;42.130;24.746;2024-01-15T04:13:09;99019.94;;;-4.25;100.00
8320;BME280;4197;42.130;24.746;2024-01-15T04:15:37;99020.19;;;-4.21;100.00
8320;BME280;4197;42.130;24.746;2024-01-15T04:18:06;99030.00;;;-4.22;100.00
8320;BME280;4197;42.130;24.746;2024-01-15T04:20:35;99037.97;;;-4.32;100.00
8320;BME280;4197;42.130;24.746;2024-01-15T04:23:03;99039.00;;;-4.38;100.00
8320;BME280;4197;42.130;24.746;2024-01-15T04:25:33;99024.19;;;-4.39;100.00
8320;BME280;4197;42.130;24.746;2024-01-15T04:28:01;99021.53;;;-4.44;100.00
8320;BME280;4197;42.130;24.746;2024-01-15T04:30:30;99010.69;;;-4.48;100.00
8320;BME280;4197;42.130;24.746;2024-01-15T04:32:58;99012.03;;;-4.51;100.00
8320;BME280;4197;42.130;24.746;2024-01-15T04:35:26;99012.53;;;-4.59;100.00
8320;BME280;4197;42.130;24.746;2024-01-15T04:37:55;98999.84;;;-4.62;100.00
8320;BME280;4197;42.130;24.746;2024-01-15T04:40:23;99009.91;;;-4.59;100.00
8320;BME280;4197;42.130;24.746;2024-01-15T04:42:55;99008.56;;;-4.61;100.00
8320;BME280;4197;42.130;24.746;2024-01-15T04:45:24;99006.72;;;-4.66;100.00
8320;BME280;4197;42.130;24.746;2024-01-15T04:47:55;99015.47;;;-4.65;100.00
8320;BME280;4197;42.130;24.746;2024-01-15T04:50:25;99003.28;;;-4.66;100.00
8320;BME280;4197;42.130;24.746;2024-01-15T04:52:53;98999.84;;;-4.67;100.00
8320;BME280;4197;42.130;24.746;2024-01-15T04:55:21;98990.06;;;-4.66;100.00
8320;BME280;4197;42.130;24.746;2024-01-15T04:57:50;99000.38;;;-4.70;100.00
8320;BME280;4197;42.130;24.746;2024-01-15T05:00:19;99003.00;;;-4.50;100.00
8320;BME280;4197;42.130;24.746;2024-01-15T05:02:48;99001.19;;;-4.54;100.00
8320;BME280;4197;42.130;24.746;2024-01-15T05:05:16;98991.91;;;-4.62;100.00
8320;BME280;4197;42.130;24.746;2024-01-15T05:07:45;98995.63;;;-4.68;100.00
8320;BME280;4197;42.130;24.746;2024-01-15T05:10:13;98992.69;;;-4.72;100.00
8320;BME280;4197;42.130;24.746;2024-01-15T05:12:41;98979.22;;;-4.75;100.00
8320;BME280;4197;42.130;24.746;2024-01-15T05:15:10;98967.06;;;-4.76;100.00
8320;BME280;4197;42.130;24.746;2024-01-15T05:17:39;98971.03;;;-4.79;100.00
8320;BME280;4197;42.130;24.746;2024-01-15T05:20:26;98970.72;;;-4.77;100.00
8320;BME280;4197;42.130;24.746;2024-01-15T05:22:54;98967.56;;;-4.74;100.00
8320;BME280;4197;42.130;24.746;2024-01-15T05:25:22;98952.75;;;-4.75;100.00
8320;BME280;4197;42.130;24.746;2024-01-15T05:27:51;98957.25;;;-4.76;100.00
8320;BME280;4197;42.130;24.746;2024-01-15T05:30:19;98960.16;;;-4.77;100.00
8320;BME280;4197;42.130;24.746;2024-01-15T05:32:49;98957.50;;;-4.77;100.00
8320;BME280;4197;42.130;24.746;2024-01-15T05:35:18;98952.50;;;-4.79;100.00
8320;BME280;4197;42.130;24.746;2024-01-15T05:37:46;98956.72;;;-4.78;100.00
8320;BME280;4197;42.130;24.746;2024-01-15T05:40:15;98945.88;;;-4.76;100.00
8320;BME280;4197;42.130;24.746;2024-01-15T05:42:43;98953.84;;;-4.71;100.00
8320;BME280;4197;42.130;24.746;2024-01-15T05:45:12;98958.31;;;-4.72;100.00
8320;BME280;4197;42.130;24.746;2024-01-15T05:47:40;98961.47;;;-4.69;100.00
8320;BME280;4197;42.130;24.746;2024-01-15T05:50:10;98966.00;;;-4.70;100.00
8320;BME280;4197;42.130;24.746;2024-01-15T05:52:39;98976.00;;;-4.46;100.00
8320;BME280;4197;42.130;24.746;2024-01-15T05:55:08;98974.13;;;-4.26;100.00
8320;BME280;4197;42.130;24.746;2024-01-15T05:57:37;98979.16;;;-4.24;100.00
8320;BME280;4197;42.130;24.746;2024-01-15T06:00:06;98975.44;;;-4.13;100.00
8320;BME280;4197;42.130;24.746;2024-01-15T06:02:37;98980.50;;;-4.27;100.00
8320;BME280;4197;42.130;24.746;2024-01-15T06:05:06;98987.38;;;-4.20;100.00
8320;BME280;4197;42.130;24.746;2024-01-15T06:07:36;98977.06;;;-4.32;100.00
8320;BME280;4197;42.130;24.746;2024-01-15T06:10:05;98971.78;;;-4.47;100.00
8320;BME280;4197;42.130;24.746;2024-01-15T06:12:34;98954.84;;;-4.46;100.00
8320;BME280;4197;42.130;24.746;2024-01-15T06:15:03;98959.59;;;-4.43;100.00
8320;BME280;4197;42.130;24.746;2024-01-15T06:17:31;98964.59;;;-4.21;100.00
8320;BME280;4197;42.130;24.746;2024-01-15T06:20:00;98967.00;;;-4.30;100.00
8320;BME280;4197;42.130;24.746;2024-01-15T06:22:28;98983.16;;;-4.37;100.00
8320;BME280;4197;42.130;24.746;2024-01-15T06:24:58;98991.34;;;-4.33;100.00
8320;BME280;4197;42.130;24.746;2024-01-15T06:27:26;99003.50;;;-4.17;100.00
8320;BME280;4197;42.130;24.746;2024-01-15T06:29:55;99004.03;;;-4.10;100.00
8320;BME280;4197;42.130;24.746;2024-01-15T06:32:23;98994.50;;;-4.11;100.00
8320;BME280;4197;42.130;24.746;2024-01-15T06:34:52;98990.56;;;-4.18;100.00
8320;BME280;4197;42.130;24.746;2024-01-15T06:37:20;98995.56;;;-4.22;100.00
8320;BME280;4197;42.130;24.746;2024-01-15T06:39:49;99000.88;;;-4.22;100.00
8320;BME280;4197;42.130;24.746;2024-01-15T06:42:19;98997.19;;;-4.26;100.00
8320;BME280;4197;42.130;24.746;2024-01-15T06:44:49;98986.84;;;-4.28;100.00
8320;BME280;4197;42.130;24.746;2024-01-15T06:47:17;98985.81;;;-4.37;100.00
8320;BME280;4197;42.130;24.746;2024-01-15T06:49:45;98992.16;;;-4.43;100.00
8320;BME280;4197;42.130;24.746;2024-01-15T06:52:14;98976.53;;;-4.39;100.00
8320;BME280;4197;42.130;24.746;2024-01-15T06:54:43;98975.75;;;-4.40;100.00
8320;BME280;4197;42.130;24.746;2024-01-15T06:57:12;98981.56;;;-4.33;100.00
8320;BME280;4197;42.130;24.746;2024-01-15T06:59:41;98979.97;;;-4.29;100.00
8320;BME280;4197;42.130;24.746;2024-01-15T07:02:10;98979.19;;;-4.29;100.00
8320;BME280;4197;42.130;24.746;2024-01-15T07:04:39;98970.16;;;-4.23;100.00
8320;BME280;4197;42.130;24.746;2024-01-15T07:07:09;98973.84;;;-4.19;100.00
8320;BME280;4197;42.130;24.746;2024-01-15T07:09:37;98981.25;;;-4.06;100.00
8320;BME280;4197;42.130;24.746;2024-01-15T07:12:06;98982.84;;;-4.10;100.00
8320;BME280;4197;42.130;24.746;2024-01-15T07:14:34;98969.31;;;-3.98;100.00
8320;BME280;4197;42.130;24.746;2024-01-15T07:17:04;98968.22;;;-3.97;100.00
8320;BME280;4197;42.130;24.746;2024-01-15T07:19:33;98968.47;;;-3.88;100.00
8320;BME280;4197;42.130;24.746;2024-01-15T07:22:01;98973.16;;;-3.60;100.00
8320;BME280;4197;42.130;24.746;2024-01-15T07:24:29;98968.06;;;-3.51;100.00
8320;BME280;4197;42.130;24.746;2024-01-15T07:26:58;98979.44;;;-3.50;100.00
8320;BME280;4197;42.130;24.746;2024-01-15T07:29:26;98978.94;;;-3.52;100.00
8320;BME280;4197;42.130;24.746;2024-01-15T07:31:54;98983.72;;;-3.54;100.00
8320;BME280;4197;42.130;24.746;2024-01-15T07:34:24;98979.69;;;-3.47;100.00
8320;BME280;4197;42.130;24.746;2024-01-15T07:36:53;98971.47;;;-3.45;100.00
8320;BME280;4197;42.130;24.746;2024-01-15T07:39:21;98977.31;;;-3.43;100.00
8320;BME280;4197;42.130;24.746;2024-01-15T07:41:51;98982.50;;;-3.28;100.00
8320;BME280;4197;42.130;24.746;2024-01-15T07:44:20;98988.78;;;-3.14;100.00
8320;BME280;4197;42.130;24.746;2024-01-15T07:46:48;98989.19;;;-2.91;100.00
8320;BME280;4197;42.130;24.746;2024-01-15T07:49:16;98988.06;;;-2.80;100.00
8320;BME280;4197;42.130;24.746;2024-01-15T07:51:47;98991.81;;;-2.52;100.00
8320;BME280;4197;42.130;24.746;2024-01-15T07:54:16;98988.78;;;-2.40;100.00
8320;BME280;4197;42.130;24.746;2024-01-15T07:56:54;98995.09;;;-2.36;100.00
8320;BME280;4197;42.130;24.746;2024-01-15T07:59:22;99006.72;;;-2.27;100.00
8320;BME280;4197;42.130;24.746;2024-01-15T08:01:51;99003.66;;;-2.10;100.00
8320;BME280;4197;42.130;24.746;2024-01-15T08:04:20;99000.03;;;-1.95;100.00
8320;BME280;4197;42.130;24.746;2024-01-15T08:06:50;99008.22;;;-1.91;100.00
8320;BME280;4197;42.130;24.746;2024-01-15T08:09:19;99015.31;;;-1.82;100.00
8320;BME280;4197;42.130;24.746;2024-01-15T08:11:47;99012.81;;;-1.73;100.00
8320;BME280;4197;42.130;24.746;2024-01-15T08:14:17;99035.38;;;-1.70;100.00
8320;BME280;4197;42.130;24.746;2024-01-15T08:16:46;99024.03;;;-1.52;100.00
8320;BME280;4197;42.130;24.746;2024-01-15T08:19:14;99028.34;;;-1.37;100.00
8320;BME280;4197;42.130;24.746;2024-01-15T08:21:43;99031.75;;;-1.31;100.00
8320;BME280;4197;42.130;24.746;2024-01-15T08:24:14;99025.78;;;-1.23;100.00
8320;BME280;4197;42.130;24.746;2024-01-15T08:26:43;99029.03;;;-1.07;100.00
8320;BME280;4197;42.130;24.746;2024-01-15T08:29:12;99025.88;;;-0.91;100.00
8320;BME280;4197;42.130;24.746;2024-01-15T08:31:40;99039.41;;;-0.87;100.00
8320;BME280;4197;42.130;24.746;2024-01-15T08:34:09;99037.66;;;-0.59;100.00
8320;BME280;4197;42.130;24.746;2024-01-15T08:36:37;99038.25;;;-0.29;100.00
8320;BME280;4197;42.130;24.746;2024-01-15T08:39:05;99035.75;;;-0.07;100.00
8320;BME280;4197;42.130;24.746;2024-01-15T08:41:37;99020.50;;;-0.20;100.00
8320;BME280;4197;42.130;24.746;2024-01-15T08:44:06;99024.09;;;-0.11;100.00
8320;BME280;4197;42.130;24.746;2024-01-15T08:46:34;99007.72;;;-0.04;100.00
8320;BME280;4197;42.130;24.746;2024-01-15T08:49:03;99000.00;;;0.08;100.00
8320;BME280;4197;42.130;24.746;2024-01-15T08:51:33;98993.97;;;0.03;100.00
8320;BME280;4197;42.130;24.746;2024-01-15T08:54:02;98981.84;;;-0.04;100.00
8320;BME280;4197;42.130;24.746;2024-01-15T08:56:30;98979.97;;;0.11;100.00
8320;BME280;4197;42.130;24.746;2024-01-15T08:59:00;98973.34;;;-0.06;100.00
8320;BME280;4197;42.130;24.746;2024-01-15T09:01:28;98959.91;;;-0.28;100.00
8320;BME280;4197;42.130;24.746;2024-01-15T09:03:57;98959.72;;;-0.18;100.00
8320;BME280;4197;42.130;24.746;2024-01-15T09:06:26;98965.47;;;0.03;100.00
8320;BME280;4197;42.130;24.746;2024-01-15T09:08:54;98957.16;;;0.05;100.00
8320;BME280;4197;42.130;24.746;2024-01-15T09:11:23;98945.91;;;0.21;100.00
8320;BME280;4197;42.130;24.746;2024-01-15T09:13:51;98957.34;;;0.36;100.00
8320;BME280;4197;42.130;24.746;2024-01-15T09:16:21;98961.13;;;0.35;100.00
8320;BME280;4197;42.130;24.746;2024-01-15T09:18:49;98946.28;;;0.42;100.00
8320;BME280;4197;42.130;24.746;2024-01-15T09:21:18;98947.63;;;0.68;100.00
8320;BME280;4197;42.130;24.746;2024-01-15T09:23:46;98958.66;;;0.75;100.00
8320;BME280;4197;42.130;24.746;2024-01-15T09:26:14;98951.56;;;0.70;100.00
8320;BME280;4197;42.130;24.746;2024-01-15T09:28:43;98957.69;;;0.71;100.00
8320;BME280;4197;42.130;24.746;2024-01-15T09:31:11;98948.66;;;0.80;100.00
8320;BME280;4197;42.130;24.746;2024-01-15T09:33:41;98940.94;;;0.93;100.00
8320;BME280;4197;42.130;24.746;2024-01-15T09:36:10;98929.72;;;1.04;100.00
8320;BME280;4197;42.130;24.746;2024-01-15T09:38:40;98931.25;;;1.19;100.00
8320;BME280;4197;42.130;24.746;2024-01-15T09:41:08;98939.72;;;1.21;100.00
8320;BME280;4197;42.130;24.746;2024-01-15T09:43:37;98932.91;;;1.38;100.00
8320;BME280;4197;42.130;24.746;2024-01-15T09:46:06;98929.34;;;1.42;100.00
8320;BME280;4197;42.130;24.746;2024-01-15T09:48:35;98915.50;;;1.40;100.00
8320;BME280;4197;42.130;24.746;2024-01-15T09:51:07;98919.78;;;1.81;100.00
8320;BME280;4197;42.130;24.746;2024-01-15T09:53:37;98930.91;;;1.74;100.00
8320;BME280;4197;42.130;24.746;2024-01-15T09:56:08;98907.66;;;1.75;100.00
8320;BME280;4197;42.130;24.746;2024-01-15T09:58:39;98892.53;;;1.70;100.00
8320;BME280;4197;42.130;24.746;2024-01-15T10:01:09;98890.03;;;1.74;100.00
8320;BME280;4197;42.130;24.746;2024-01-15T10:03:42;98892.97;;;1.64;100.00
8320;BME280;4197;42.130;24.746;2024-01-15T10:06:15;98895.66;;;1.64;100.00
8320;BME280;4197;42.130;24.746;2024-01-15T10:08:50;98888.63;;;1.76;100.00
8320;BME280;4197;42.130;24.746;2024-01-15T10:11:18;98880.63;;;1.85;100.00
8320;BME280;4197;42.130;24.746;2024-01-15T10:13:47;98887.44;;;1.91;100.00
8320;BME280;4197;42.130;24.746;2024-01-15T10:16:20;98870.72;;;1.86;100.00
8320;BME280;4197;42.130;24.746;2024-01-15T10:18:49;98876.28;;;1.98;100.00
8320;BME280;4197;42.130;24.746;2024-01-15T10:21:19;98873.59;;;1.98;100.00
8320;BME280;4197;42.130;24.746;2024-01-15T10:23:47;98870.78;;;2.03;100.00
8320;BME280;4197;42.130;24.746;2024-01-15T10:26:16;98850.66;;;2.06;100.00
8320;BME280;4197;42.130;24.746;2024-01-15T10:28:45;98838.69;;;2.12;100.00
8320;BME280;4197;42.130;24.746;2024-01-15T10:31:13;98843.09;;;2.08;100.00
8320;BME280;4197;42.130;24.746;2024-01-15T10:33:43;98836.34;;;2.19;100.00
8320;BME280;4197;42.130;24.746;2024-01-15T10:36:11;98811.47;;;2.18;100.00
8320;BME280;4197;42.130;24.746;2024-01-15T10:38:42;98798.88;;;1.93;100.00
8320;BME280;4197;42.130;24.746;2024-01-15T10:41:29;98799.22;;;2.26;100.00
8320;BME280;4197;42.130;24.746;2024-01-15T10:43:57;98779.69;;;2.34;100.00
8320;BME280;4197;42.130;24.746;2024-01-15T10:46:26;98775.91;;;2.61;100.00
8320;BME280;4197;42.130;24.746;2024-01-15T10:48:54;98768.59;;;2.88;100.00
8320;BME280;4197;42.130;24.746;2024-01-15T10:51:23;98775.16;;;3.17;100.00
8320;BME280;4197;42.130;24.746;2024-01-15T10:53:55;98775.69;;;3.40;100.00
8320;BME280;4197;42.130;24.746;2024-01-15T10:56:25;98781.41;;;3.59;100.00
8320;BME280;4197;42.130;24.746;2024-01-15T10:58:56;98778.19;;;3.45;100.00
8320;BME280;4197;42.130;24.746;2024-01-15T11:01:27;98781.56;;;3.63;100.00
8320;BME280;4197;42.130;24.746;2024-01-15T11:03:57;98777.13;;;3.67;100.00
8320;BME280;4197;42.130;24.746;2024-01-15T11:06:28;98775.72;;;3.90;100.00
8320;BME280;4197;42.130;24.746;2024-01-15T11:09:00;98767.59;;;3.99;100.00
8320;BME280;4197;42.130;24.746;2024-01-15T11:11:35;98756.56;;;4.00;100.00
8320;BME280;4197;42.130;24.746;2024-01-15T11:14:03;98747.13;;;3.94;100.00
8320;BME280;4197;42.130;24.746;2024-01-15T11:16:55;98738.63;;;3.92;100.00
8320;BME280;4197;42.130;24.746;2024-01-15T11:19:27;98737.75;;;3.58;100.00
8320;BME280;4197;42.130;24.746;2024-01-15T11:22:03;98722.56;;;3.63;100.00
8320;BME280;4197;42.130;24.746;2024-01-15T11:24:35;98723.59;;;4.00;100.00
8320;BME280;4197;42.130;24.746;2024-01-15T11:27:05;98725.34;;;3.96;100.00
8320;BME280;4197;42.130;24.746;2024-01-15T11:29:34;98728.81;;;3.96;99.78
8320;BME280;4197;42.130;24.746;2024-01-15T11:32:06;98724.50;;;3.83;92.51
8320;BME280;4197;42.130;24.746;2024-01-15T11:34:52;98708.41;;;3.83;89.95
8320;BME280;4197;42.130;24.746;2024-01-15T11:37:21;98714.16;;;3.94;82.36
8320;BME280;4197;42.130;24.746;2024-01-15T11:39:53;98706.88;;;4.15;81.19
8320;BME280;4197;42.130;24.746;2024-01-15T11:42:22;98712.03;;;4.41;70.80
8320;BME280;4197;42.130;24.746;2024-01-15T11:44:50;98710.03;;;4.51;70.94
8320;BME280;4197;42.130;24.746;2024-01-15T11:50:13;98702.66;;;4.60;68.96
8320;BME280;4197;42.130;24.746;2024-01-15T11:52:48;98703.78;;;4.59;69.48
8320;BME280;4197;42.130;24.746;2024-01-15T11:55:25;98698.59;;;4.41;68.82
8320;BME280;4197;42.130;24.746;2024-01-15T11:57:55;98706.84;;;4.36;68.77
8320;BME280;4197;42.130;24.746;2024-01-15T12:00:25;98697.09;;;4.32;69.24
8320;BME280;4197;42.130;24.746;2024-01-15T12:02:54;98684.09;;;4.55;67.94
8320;BME280;4197;42.130;24.746;2024-01-15T12:05:23;98672.16;;;4.31;68.68
8320;BME280;4197;42.130;24.746;2024-01-15T12:07:51;98672.31;;;4.47;68.92
8320;BME280;4197;42.130;24.746;2024-01-15T12:10:22;98685.66;;;4.68;67.81
8320;BME280;4197;42.130;24.746;2024-01-15T12:12:58;98694.41;;;4.65;67.89
8320;BME280;4197;42.130;24.746;2024-01-15T12:15:29;98696.16;;;4.48;67.40
8320;BME280;4197;42.130;24.746;2024-01-15T12:17:58;98695.44;;;4.39;69.34
8320;BME280;4197;42.130;24.746;2024-01-15T12:20:28;98688.72;;;4.33;69.72
8320;BME280;4197;42.130;24.746;2024-01-15T12:22:57;98691.69;;;4.19;69.58
8320;BME280;4197;42.130;24.746;2024-01-15T12:25:32;98682.22;;;4.22;69.17
8320;BME280;4197;42.130;24.746;2024-01-15T12:28:01;98674.09;;;4.10;68.27
8320;BME280;4197;42.130;24.746;2024-01-15T12:30:30;98667.63;;;3.90;69.14
8320;BME280;4197;42.130;24.746;2024-01-15T12:33:01;98661.81;;;3.88;69.07
8320;BME280;4197;42.130;24.746;2024-01-15T12:35:31;98651.81;;;3.97;71.31
8320;BME280;4197;42.130;24.746;2024-01-15T12:38:00;98655.19;;;4.06;72.76
8320;BME280;4197;42.130;24.746;2024-01-15T12:40:33;98661.81;;;4.09;73.01
8320;BME280;4197;42.130;24.746;2024-01-15T12:43:05;98664.59;;;4.12;73.60
8320;BME280;4197;42.130;24.746;2024-01-15T12:45:33;98664.75;;;4.16;74.70
8320;BME280;4197;42.130;24.746;2024-01-15T12:48:04;98662.97;;;4.20;74.85
8320;BME280;4197;42.130;24.746;2024-01-15T12:50:33;98668.59;;;4.27;74.78
8320;BME280;4197;42.130;24.746;2024-01-15T12:53:02;98652.34;;;4.23;76.02
8320;BME280;4197;42.130;24.746;2024-01-15T12:55:32;98654.25;;;4.23;77.50
8320;BME280;4197;42.130;24.746;2024-01-15T12:58:02;98651.97;;;4.13;78.75
8320;BME280;4197;42.130;24.746;2024-01-15T13:00:30;98659.56;;;4.44;78.05
8320;BME280;4197;42.130;24.746;2024-01-15T13:02:59;98644.66;;;4.34;78.81
8320;BME280;4197;42.130;24.746;2024-01-15T13:05:31;98646.66;;;4.25;79.87
8320;BME280;4197;42.130;24.746;2024-01-15T13:08:01;98646.28;;;4.14;80.53
8320;BME280;4197;42.130;24.746;2024-01-15T13:10:31;98632.97;;;4.18;81.03
8320;BME280;4197;42.130;24.746;2024-01-15T13:13:00;98630.47;;;4.00;81.99
8320;BME280;4197;42.130;24.746;2024-01-15T13:15:29;98616.16;;;3.96;81.69
8320;BME280;4197;42.130;24.746;2024-01-15T13:17:58;98616.47;;;3.95;83.10
8320;BME280;4197;42.130;24.746;2024-01-15T13:20:27;98607.06;;;3.89;82.73